createdAt,value
2019-04-22T00:00:00.990Z,99477.64
2019-04-22T00:02:40.093Z,99485.48
2019-04-22T00:05:14.299Z,99485.31
2019-04-22T00:08:04.658Z,99485.34
2019-04-22T00:10:33.166Z,99482.16
2019-04-22T00:13:14.931Z,99473.91
2019-04-22T00:15:34.011Z,99477.27
2019-04-22T00:18:16.561Z,99477.77
2019-04-22T00:20:47.115Z,99486.98
2019-04-22T00:23:13.239Z,99485.97
2019-04-22T00:25:42.143Z,99484.75
2019-04-22T00:28:20.062Z,99483.70
2019-04-22T00:30:47.095Z,99489.70
2019-04-22T00:33:20.527Z,99494.54
2019-04-22T00:35:56.771Z,99496.88
2019-04-22T00:41:01.032Z,99486.32
2019-04-22T00:43:32.988Z,99474.92
2019-04-22T00:45:57.850Z,99476.71
2019-04-22T00:48:57.940Z,99465.30
2019-04-22T00:51:05.805Z,99463.80
2019-04-22T00:53:35.449Z,99466.98
2019-04-22T01:01:19.100Z,99465.17
2019-04-22T01:03:55.869Z,99455.61
2019-04-22T01:06:20.376Z,99457.63
2019-04-22T01:11:33.537Z,99451.23
2019-04-22T01:13:55.849Z,99448.41
2019-04-22T01:18:53.826Z,99450.02
2019-04-22T01:21:36.896Z,99448.53
2019-04-22T01:23:58.043Z,99449.55
2019-04-22T01:26:33.077Z,99448.41
2019-04-22T01:28:59.275Z,99445.87
2019-04-22T01:31:20.478Z,99445.02
2019-04-22T01:34:04.339Z,99442.67
2019-04-22T01:36:36.470Z,99446.05
2019-04-22T01:39:18.698Z,99448.06
2019-04-22T01:41:55.563Z,99446.69
2019-04-22T01:44:22.622Z,99447.89
2019-04-22T01:46:50.825Z,99445.70
2019-04-22T01:49:21.351Z,99444.03
2019-04-22T01:51:58.390Z,99441.81
2019-04-22T01:54:29.803Z,99439.67
2019-04-22T01:57:01.585Z,99437.81
2019-04-22T01:59:19.869Z,99434.12
2019-04-22T02:02:02.960Z,99430.94
2019-04-22T02:04:38.206Z,99433.14
2019-04-22T02:07:01.924Z,99428.94
2019-04-22T02:09:38.657Z,99423.38
2019-04-22T02:12:06.426Z,99421.37
2019-04-22T02:14:39.347Z,99418.38
2019-04-22T02:17:14.532Z,99415.52
2019-04-22T02:19:45.531Z,99421.89
2019-04-22T02:22:27.581Z,99424.22
2019-04-22T02:24:43.904Z,99419.53
2019-04-22T02:27:17.498Z,99419.19
2019-04-22T02:29:47.368Z,99417.18
2019-04-22T02:35:01.216Z,99415.66
2019-04-22T02:37:26.443Z,99414.66
2019-04-22T02:39:58.091Z,99418.18
2019-04-22T02:42:23.577Z,99421.20
2019-04-22T02:44:53.109Z,99420.02
2019-04-22T02:50:07.024Z,99418.52
2019-04-22T02:52:41.077Z,99416.66
2019-04-22T02:57:39.290Z,99414.95
2019-04-22T03:00:18.192Z,99419.81
2019-04-22T03:05:24.090Z,99415.73
2019-04-22T03:07:48.996Z,99411.70
2019-04-22T03:10:22.688Z,99418.75
2019-04-22T03:12:41.334Z,99413.86
2019-04-22T03:15:30.512Z,99414.00
2019-04-22T03:17:43.638Z,99419.72
2019-04-22T03:23:01.762Z,99416.63
2019-04-22T03:25:55.538Z,99414.42
2019-04-22T03:27:48.293Z,99412.99
2019-04-22T03:33:11.212Z,99415.36
2019-04-22T03:36:36.434Z,99412.56
2019-04-22T03:43:20.955Z,99418.64
2019-04-22T03:50:29.631Z,99419.32
2019-04-22T03:53:09.762Z,99425.73
2019-04-22T03:55:41.229Z,99422.53
2019-04-22T03:58:21.432Z,99431.55
2019-04-22T04:00:55.548Z,99433.09
2019-04-22T04:16:26.746Z,99455.87
2019-04-22T04:19:02.586Z,99455.95
2019-04-22T04:24:24.115Z,99467.03
2019-04-22T04:26:42.550Z,99464.23
2019-04-22T04:29:05.913Z,99464.20
2019-04-22T04:31:33.315Z,99472.73
2019-04-22T04:36:38.869Z,99480.46
2019-04-22T04:39:00.582Z,99474.33
2019-04-22T04:41:42.899Z,99477.94
2019-04-22T04:56:40.588Z,99480.51
2019-04-22T04:59:30.384Z,99484.25
2019-04-22T05:01:45.119Z,99481.56
2019-04-22T05:04:25.919Z,99482.98
2019-04-22T05:06:51.802Z,99482.44
2019-04-22T05:09:21.456Z,99496.11
2019-04-22T05:14:19.253Z,99501.51
2019-04-22T05:16:54.764Z,99500.42
2019-04-22T05:19:22.637Z,99499.14
2019-04-22T05:21:54.499Z,99508.23
2019-04-22T05:24:24.302Z,99503.05
2019-04-22T05:26:57.043Z,99501.33
2019-04-22T05:29:35.109Z,99507.63
2019-04-22T05:34:28.114Z,99502.05
2019-04-22T05:36:52.812Z,99501.00
2019-04-22T05:39:24.613Z,99504.38
2019-04-22T05:42:03.199Z,99504.61
2019-04-22T05:44:29.399Z,99513.88
2019-04-22T05:47:04.733Z,99516.34
2019-04-22T05:49:31.165Z,99518.92
2019-04-22T05:52:02.854Z,99517.72
2019-04-22T05:54:34.695Z,99508.53
2019-04-22T05:57:12.955Z,99513.87
2019-04-22T05:59:39.603Z,99510.00
2019-04-22T06:02:13.576Z,99512.69
2019-04-22T06:04:49.396Z,99513.35
2019-04-22T06:07:13.629Z,99506.31
2019-04-22T06:09:41.111Z,99509.00
2019-04-22T06:12:12.312Z,99497.02
2019-04-22T06:14:54.345Z,99499.16
2019-04-22T06:17:32.087Z,99505.69
2019-04-22T06:19:57.594Z,99505.78
2019-04-22T06:22:41.324Z,99504.41
2019-04-22T06:25:01.127Z,99503.87
2019-04-22T06:27:33.027Z,99504.20
2019-04-22T06:30:07.982Z,99511.17
2019-04-22T06:32:32.497Z,99502.50
2019-04-22T06:35:19.802Z,99502.06
2019-04-22T06:37:45.930Z,99502.77
2019-04-22T06:40:13.043Z,99496.17
2019-04-22T06:42:48.985Z,99502.91
2019-04-22T06:50:16.608Z,99501.56
2019-04-22T06:52:51.962Z,99505.19
2019-04-22T06:55:21.241Z,99508.73
2019-04-22T06:57:55.076Z,99509.58
2019-04-22T07:00:24.500Z,99513.11
2019-04-22T07:05:27.548Z,99521.05
2019-04-22T07:08:04.386Z,99520.52
2019-04-22T07:13:00.947Z,99516.88
2019-04-22T07:18:03.035Z,99508.14
2019-04-22T07:20:42.017Z,99510.63
2019-04-22T07:23:07.980Z,99510.52
2019-04-22T07:25:34.910Z,99514.75
2019-04-22T07:28:14.252Z,99510.37
2019-04-22T07:30:41.020Z,99511.20
2019-04-22T07:38:18.687Z,99512.42
2019-04-22T07:45:51.923Z,99512.45
2019-04-22T07:48:33.951Z,99508.08
2019-04-22T07:53:22.996Z,99502.41
2019-04-22T07:56:01.386Z,99500.30
2019-04-22T08:01:07.209Z,99495.99
2019-04-22T08:03:38.105Z,99489.16
2019-04-22T08:08:29.098Z,99484.42
2019-04-22T08:11:10.349Z,99482.95
2019-04-22T08:13:38.563Z,99481.69
2019-04-22T08:18:55.805Z,99474.95
2019-04-22T08:21:09.101Z,99476.50
2019-04-22T08:23:41.720Z,99473.91
2019-04-22T08:26:11.190Z,99480.67
2019-04-22T08:28:46.523Z,99482.58
2019-04-22T08:31:18.765Z,99477.45
2019-04-22T08:33:46.916Z,99474.63
2019-04-22T08:36:24.078Z,99477.66
2019-04-22T08:38:55.921Z,99477.10
2019-04-22T08:56:37.695Z,99473.89
2019-04-22T08:59:11.051Z,99470.41
2019-04-22T09:02:04.870Z,99477.61
2019-04-22T09:07:06.117Z,99474.63
2019-04-22T09:11:48.499Z,99462.70
2019-04-22T09:14:15.693Z,99459.44
2019-04-22T09:16:42.736Z,99465.23
2019-04-22T09:19:17.830Z,99459.85
2019-04-22T09:21:56.018Z,99466.95
2019-04-22T09:24:16.802Z,99465.17
2019-04-22T09:26:54.483Z,99457.57
2019-04-22T09:29:29.440Z,99453.34
2019-04-22T09:32:00.416Z,99452.92
2019-04-22T09:34:32.092Z,99455.20
2019-04-22T09:37:05.995Z,99454.98
2019-04-22T09:39:29.480Z,99450.74
2019-04-22T09:42:03.014Z,99453.54
2019-04-22T09:44:34.620Z,99447.52
2019-04-22T09:47:00.012Z,99444.31
2019-04-22T09:49:37.086Z,99438.11
2019-04-22T09:52:02.935Z,99447.70
2019-04-22T09:54:49.621Z,99433.95
2019-04-22T09:57:09.520Z,99437.06
2019-04-22T09:59:44.057Z,99430.15
2019-04-22T10:04:46.651Z,99416.63
2019-04-22T10:07:19.817Z,99413.16
2019-04-22T10:12:19.301Z,99406.31
2019-04-22T10:14:49.706Z,99404.58
2019-04-22T10:17:17.304Z,99406.48
2019-04-22T10:20:07.116Z,99399.97
2019-04-22T10:22:27.582Z,99397.05
2019-04-22T10:24:53.216Z,99399.69
2019-04-22T10:27:26.282Z,99391.26
2019-04-22T10:30:00.209Z,99401.27
2019-04-22T10:32:33.584Z,99390.56
2019-04-22T10:34:57.231Z,99379.43
2019-04-22T10:37:22.399Z,99374.41
2019-04-22T10:39:57.504Z,99379.02
2019-04-22T10:42:25.217Z,99379.08
2019-04-22T10:44:57.271Z,99376.84
2019-04-22T10:47:27.991Z,99370.53
2019-04-22T10:49:58.295Z,99367.75
2019-04-22T10:52:28.001Z,99369.14
2019-04-22T10:54:58.990Z,99353.77
2019-04-22T10:57:29.774Z,99355.05
2019-04-22T11:00:00.935Z,99348.68
2019-04-22T11:02:31.782Z,99356.69
2019-04-22T11:05:02.059Z,99352.93
2019-04-22T11:07:39.736Z,99357.03
2019-04-22T11:10:20.475Z,99353.95
2019-04-22T11:12:36.176Z,99352.11
2019-04-22T11:15:09.747Z,99350.41
2019-04-22T11:17:41.885Z,99351.06
2019-04-22T11:20:13.483Z,99351.93
2019-04-22T11:22:44.556Z,99350.15
2019-04-22T11:25:16.045Z,99351.14
2019-04-22T11:27:47.210Z,99312.95
2019-04-22T11:30:21.989Z,99348.47
2019-04-22T11:32:51.880Z,99343.59
2019-04-22T11:35:21.968Z,99345.26
2019-04-22T11:37:52.726Z,99345.41
2019-04-22T11:40:28.782Z,99341.36
2019-04-22T11:42:54.651Z,99335.11
2019-04-22T11:45:24.977Z,99321.28
2019-04-22T11:47:55.265Z,99323.88
2019-04-22T11:50:28.072Z,99314.65
2019-04-22T11:52:58.562Z,99314.27
2019-04-22T11:55:28.891Z,99306.02
2019-04-22T11:57:58.992Z,99305.38
2019-04-22T12:00:34.758Z,99302.45
2019-04-22T12:03:05.408Z,99298.06
2019-04-22T12:05:35.146Z,99305.17
2019-04-22T12:08:05.097Z,99292.61
2019-04-22T12:10:42.747Z,99282.09
2019-04-22T12:13:08.110Z,99287.99
2019-04-22T12:15:37.940Z,99288.50
2019-04-22T12:18:09.223Z,99277.65
2019-04-22T12:20:39.251Z,99275.60
2019-04-22T12:23:09.483Z,99282.86
2019-04-22T12:25:47.615Z,99280.08
2019-04-22T12:28:11.162Z,99268.16
2019-04-22T12:30:41.747Z,99272.34
2019-04-22T12:33:14.767Z,99266.20
2019-04-22T12:35:44.232Z,99261.27
2019-04-22T12:38:15.257Z,99258.35
2019-04-22T12:40:53.187Z,99247.67
2019-04-22T12:43:20.244Z,99247.41
2019-04-22T12:45:48.144Z,99243.41
2019-04-22T12:48:19.089Z,99240.20
2019-04-22T12:50:52.120Z,99231.56
2019-04-22T12:53:22.566Z,99231.52
2019-04-22T12:55:54.902Z,99234.20
2019-04-22T12:58:23.569Z,99234.05
2019-04-22T13:00:54.578Z,99230.97
2019-04-22T13:03:24.580Z,99230.00
2019-04-22T13:05:56.159Z,99231.58
2019-04-22T13:08:27.509Z,99223.84
2019-04-22T13:11:02.959Z,99217.41
2019-04-22T13:13:29.049Z,99220.43
2019-04-22T13:15:59.390Z,99216.59
2019-04-22T13:18:37.502Z,99216.14
2019-04-22T13:21:00.466Z,99220.97
2019-04-22T13:23:30.102Z,99216.59
2019-04-22T13:26:00.942Z,99213.95
2019-04-22T13:28:31.500Z,99209.58
2019-04-22T13:31:01.957Z,99209.45
2019-04-22T13:33:32.906Z,99213.77
2019-04-22T13:36:03.756Z,99210.45
2019-04-22T13:38:35.251Z,99205.02
2019-04-22T13:41:17.299Z,99202.08
2019-04-22T13:43:36.708Z,99200.33
2019-04-22T13:46:14.373Z,99197.10
2019-04-22T13:49:13.185Z,99195.75
2019-04-22T13:51:48.356Z,99190.80
2019-04-22T13:54:42.405Z,99189.16
2019-04-22T13:56:38.811Z,99184.41
2019-04-22T13:59:01.860Z,99191.45
2019-04-22T14:01:22.947Z,99189.50
2019-04-22T14:04:00.789Z,99178.48
2019-04-22T14:06:31.098Z,99186.40
2019-04-22T14:09:01.142Z,99176.11
2019-04-22T14:11:39.046Z,99178.83
2019-04-22T14:14:02.846Z,99173.89
2019-04-22T14:16:33.158Z,99177.42
2019-04-22T14:19:02.817Z,99182.24
2019-04-22T14:21:32.713Z,99186.17
2019-04-22T14:24:02.705Z,99181.72
2019-04-22T14:26:46.868Z,99181.47
2019-04-22T14:29:04.163Z,99176.83
2019-04-22T14:31:34.495Z,99186.44
2019-04-22T14:34:07.339Z,99183.92
2019-04-22T14:36:37.131Z,99190.28
2019-04-22T14:39:10.284Z,99187.18
2019-04-22T14:41:54.811Z,99175.63
2019-04-22T14:47:09.137Z,99184.13
2019-04-22T14:49:38.298Z,99197.64
2019-04-22T14:52:13.609Z,99188.89
2019-04-22T14:54:30.952Z,99200.28
2019-04-22T14:56:48.522Z,99196.80
2019-04-22T14:59:18.906Z,99197.59
2019-04-22T15:01:49.785Z,99200.63
2019-04-22T15:04:19.707Z,99194.95
2019-04-22T15:06:50.355Z,99197.65
2019-04-22T15:09:21.722Z,99194.59
2019-04-22T15:12:04.893Z,99188.50
2019-04-22T15:14:23.349Z,99193.94
2019-04-22T15:17:18.693Z,99189.76
2019-04-22T15:20:01.624Z,99200.53
2019-04-22T15:22:32.624Z,99211.23
2019-04-22T15:25:02.983Z,99214.97
2019-04-22T15:27:33.182Z,99217.36
2019-04-22T15:30:03.603Z,99212.98
2019-04-22T15:32:33.589Z,99223.23
2019-04-22T15:35:03.214Z,99212.96
2019-04-22T15:37:33.229Z,99216.58
2019-04-22T15:40:04.616Z,99219.83
2019-04-22T15:42:38.331Z,99217.14
2019-04-22T15:45:08.644Z,99219.97
2019-04-22T15:47:37.830Z,99208.30
2019-04-22T15:50:08.089Z,99217.61
2019-04-22T15:52:44.510Z,99210.48
2019-04-22T15:55:09.212Z,99205.67
2019-04-22T15:57:39.873Z,99207.00
2019-04-22T16:00:22.804Z,99200.92
2019-04-22T16:02:41.703Z,99205.89
2019-04-22T16:05:12.760Z,99214.37
2019-04-22T16:07:43.954Z,99218.88
2019-04-22T16:10:15.772Z,99212.97
2019-04-22T16:12:56.090Z,99214.80
2019-04-22T16:15:18.541Z,99216.23
2019-04-22T16:17:48.821Z,99219.75
2019-04-22T16:20:19.276Z,99218.24
2019-04-22T16:23:07.763Z,99216.00
2019-04-22T16:26:05.497Z,99216.17
2019-04-22T16:28:35.421Z,99203.83
2019-04-22T16:31:05.316Z,99200.66
2019-04-22T16:33:39.969Z,99153.78
2019-04-22T16:36:09.030Z,99197.78
2019-04-22T16:38:38.780Z,99201.95
2019-04-22T16:41:08.589Z,99206.81
2019-04-22T16:43:38.404Z,99208.42
2019-04-22T16:46:09.650Z,99212.80
2019-04-22T16:48:39.950Z,99216.87
2019-04-22T16:51:10.020Z,99226.31
2019-04-22T16:53:41.068Z,99219.94
2019-04-22T16:56:11.042Z,99228.42
2019-04-22T16:58:41.048Z,99227.20
2019-04-22T17:01:30.552Z,99212.53
2019-04-22T17:04:14.526Z,99215.80
2019-04-22T17:06:45.594Z,99210.73
2019-04-22T17:09:17.641Z,99208.17
2019-04-22T17:11:47.959Z,99201.97
2019-04-22T17:14:25.308Z,99206.05
2019-04-22T17:16:50.502Z,99205.31
2019-04-22T17:19:21.643Z,99198.73
2019-04-22T17:21:51.399Z,99205.39
2019-04-22T17:24:21.667Z,99208.41
2019-04-22T17:26:52.597Z,99216.78
2019-04-22T17:29:22.793Z,99226.98
2019-04-22T17:31:58.249Z,99227.84
2019-04-22T17:34:25.370Z,99239.63
2019-04-22T17:36:55.361Z,99244.45
2019-04-22T17:39:35.614Z,99247.58
2019-04-22T17:42:14.057Z,99266.14
2019-04-22T17:45:00.368Z,99271.56
2019-04-22T17:47:32.969Z,99276.14
2019-04-22T17:50:22.426Z,99271.88
2019-04-22T17:52:51.041Z,99276.86
2019-04-22T17:55:19.589Z,99281.24
2019-04-22T17:57:49.511Z,99289.98
2019-04-22T18:00:21.848Z,99281.22
2019-04-22T18:02:45.747Z,99289.70
2019-04-22T18:05:07.372Z,99291.92
2019-04-22T18:07:57.371Z,99296.09
2019-04-22T18:13:12.031Z,99308.78
2019-04-22T18:15:29.427Z,99314.45
2019-04-22T18:18:06.891Z,99324.84
2019-04-22T18:20:29.278Z,99329.84
2019-04-22T18:22:54.300Z,99335.07
2019-04-22T18:25:33.885Z,99347.86
2019-04-22T18:28:13.481Z,99346.59
2019-04-22T18:30:33.348Z,99344.00
2019-04-22T18:33:13.009Z,99337.15
2019-04-22T18:35:39.386Z,99339.30
2019-04-22T18:38:28.257Z,99346.73
2019-04-22T18:40:57.335Z,99345.02
2019-04-22T18:43:51.795Z,99350.93
2019-04-22T18:46:32.552Z,99354.78
2019-04-22T18:49:00.606Z,99362.81
2019-04-22T18:51:45.362Z,99363.28
2019-04-22T18:54:31.083Z,99380.60
2019-04-22T18:56:58.772Z,99380.18
2019-04-22T18:59:21.288Z,99385.92
2019-04-22T19:01:44.362Z,99385.18
2019-04-22T19:04:24.314Z,99388.83
2019-04-22T19:07:15.261Z,99399.23
2019-04-22T19:09:53.284Z,99406.02
2019-04-22T19:14:56.703Z,99416.56
2019-04-22T19:19:56.214Z,99421.66
2019-04-22T19:22:29.892Z,99412.59
2019-04-22T19:24:51.729Z,99413.45
2019-04-22T19:27:26.606Z,99425.34
2019-04-22T19:29:57.812Z,99426.59
2019-04-22T19:32:35.096Z,99426.53
2019-04-22T19:35:01.581Z,99425.22
2019-04-22T19:37:28.375Z,99423.90
2019-04-22T19:40:09.616Z,99427.64
2019-04-22T19:45:08.299Z,99442.34
2019-04-22T19:47:46.499Z,99429.29
2019-04-22T19:52:39.843Z,99442.35
2019-04-22T19:55:15.713Z,99448.79
2019-04-22T19:57:43.418Z,99440.27
2019-04-22T20:00:18.469Z,99449.19
2019-04-22T20:03:13.244Z,99452.76
2019-04-22T20:05:59.441Z,99456.25
2019-04-22T20:08:31.178Z,99468.08
2019-04-22T20:11:08.575Z,99475.52
2019-04-22T20:13:37.188Z,99480.08
2019-04-22T20:15:56.112Z,99485.97
2019-04-22T20:18:48.341Z,99496.98
2019-04-22T20:21:11.926Z,99506.58
2019-04-22T20:23:36.395Z,99512.30
2019-04-22T20:26:07.563Z,99522.55
2019-04-22T20:28:44.661Z,99524.56
2019-04-22T20:31:14.121Z,99531.64
2019-04-22T20:33:51.321Z,99540.19
2019-04-22T20:36:39.419Z,99538.45
2019-04-22T20:38:44.963Z,99536.28
2019-04-22T20:41:17.120Z,99534.31
2019-04-22T20:44:04.963Z,99489.63
2019-04-22T20:46:20.495Z,99534.48
2019-04-22T20:48:54.866Z,99534.16
2019-04-22T20:51:38.443Z,99535.67
2019-04-22T20:54:02.092Z,99540.05
2019-04-22T20:56:25.651Z,99533.69
2019-04-22T20:59:03.948Z,99532.69
2019-04-22T21:01:34.421Z,99529.32
2019-04-22T21:03:50.610Z,99533.86
2019-04-22T21:06:33.559Z,99532.36
2019-04-22T21:09:08.887Z,99540.92
2019-04-22T21:11:34.010Z,99544.63
2019-04-22T21:14:06.004Z,99546.14
2019-04-22T21:16:40.867Z,99558.37
2019-04-22T21:19:18.884Z,99557.39
2019-04-22T21:21:44.985Z,99563.25
2019-04-22T21:24:13.986Z,99572.81
2019-04-22T21:26:45.372Z,99580.72
2019-04-22T21:29:14.619Z,99579.53
2019-04-22T21:31:51.207Z,99588.25
2019-04-22T21:34:16.139Z,99592.14
2019-04-22T21:36:58.201Z,99597.17
2019-04-22T21:39:20.533Z,99591.98
2019-04-22T21:41:51.442Z,99592.64
2019-04-22T21:44:29.069Z,99592.78
2019-04-22T21:47:09.021Z,99598.66
2019-04-22T21:49:29.688Z,99596.83
2019-04-22T21:52:01.642Z,99609.22
2019-04-22T21:54:34.261Z,99613.91
2019-04-22T21:57:24.661Z,99613.08
2019-04-22T21:59:51.090Z,99614.45
2019-04-22T22:02:29.634Z,99619.98
2019-04-22T22:04:47.383Z,99612.56
2019-04-22T22:07:13.570Z,99609.05
2019-04-22T22:09:53.806Z,99620.44
2019-04-22T22:12:33.711Z,99623.50
2019-04-22T22:15:04.168Z,99622.80
2019-04-22T22:17:30.728Z,99563.59
2019-04-22T22:19:57.800Z,99615.87
2019-04-22T22:22:46.606Z,99620.75
2019-04-22T22:25:10.495Z,99618.91
2019-04-22T22:27:39.331Z,99621.25
2019-04-22T22:30:33.513Z,99633.68
2019-04-22T22:32:40.182Z,99638.23
2019-04-22T22:35:16.192Z,99635.03
2019-04-22T22:37:35.938Z,99632.19
2019-04-22T22:40:01.208Z,99633.17
2019-04-22T22:42:33.761Z,99635.83
2019-04-22T22:45:10.305Z,99634.31
2019-04-22T22:47:48.745Z,99632.29
2019-04-22T22:50:20.379Z,99635.20
2019-04-22T22:53:00.965Z,99637.95
2019-04-22T22:55:24.987Z,99634.55
2019-04-22T22:57:58.364Z,99632.39
2019-04-22T23:00:22.318Z,99638.78
2019-04-22T23:03:06.802Z,99631.41
2019-04-22T23:05:35.905Z,99642.87
2019-04-22T23:07:58.745Z,99625.87
2019-04-22T23:10:34.128Z,99633.92
2019-04-22T23:13:08.495Z,99643.48
2019-04-22T23:15:27.546Z,99638.45
2019-04-22T23:17:45.725Z,99645.16
2019-04-22T23:20:18.583Z,99648.02
2019-04-22T23:23:12.321Z,99649.70
2019-04-22T23:25:41.546Z,99647.33
2019-04-22T23:28:26.652Z,99645.16
2019-04-22T23:31:21.160Z,99648.39
2019-04-22T23:33:56.129Z,99648.70
2019-04-22T23:36:36.814Z,99642.52
2019-04-22T23:39:21.533Z,99643.84
2019-04-22T23:42:04.823Z,99524.08
2019-04-22T23:44:18.391Z,99648.63
2019-04-22T23:46:55.359Z,99646.33
2019-04-22T23:49:25.341Z,99639.45
2019-04-22T23:52:16.168Z,99644.99
2019-04-22T23:54:49.655Z,99644.67
2019-04-22T23:57:03.204Z,99645.33
2019-04-22T23:59:47.870Z,99652.39
